createdAt,value
2022-08-24T00:03:01.662Z,13.5
2022-08-24T00:08:05.793Z,13.5
2022-08-24T00:13:10.436Z,13.5
2022-08-24T00:18:14.831Z,13.6
2022-08-24T00:23:18.354Z,13.6
2022-08-24T00:28:22.921Z,13.6
2022-08-24T00:33:27.456Z,13.7
2022-08-24T00:38:31.001Z,13.7
2022-08-24T00:43:35.526Z,13.7
2022-08-24T00:48:40.087Z,13.7
2022-08-24T00:53:43.638Z,13.4
2022-08-24T00:58:56.795Z,13.4
2022-08-24T01:03:56.819Z,13.4
2022-08-24T01:08:57.001Z,13.4
2022-08-24T01:14:00.871Z,13.5
2022-08-24T01:19:05.322Z,13.4
2022-08-24T01:24:09.846Z,13.3
2022-08-24T01:29:13.369Z,13.4
2022-08-24T01:34:17.935Z,13.4
2022-08-24T01:39:22.428Z,13.3
2022-08-24T01:44:26.012Z,13.4
2022-08-24T01:49:30.533Z,13.4
2022-08-24T01:54:35.095Z,13.3
2022-08-24T01:59:38.657Z,13.3
2022-08-24T02:04:44.229Z,13.4
2022-08-24T02:09:47.712Z,13.3
2022-08-24T02:14:51.219Z,13.3
2022-08-24T02:19:55.796Z,13.3
2022-08-24T02:25:00.302Z,13.2
2022-08-24T02:30:05.290Z,13.1
2022-08-24T02:35:08.375Z,13
2022-08-24T02:40:13.029Z,13
2022-08-24T02:45:17.462Z,12.9
2022-08-24T02:50:21.038Z,12.8
2022-08-24T02:55:25.553Z,12.7
2022-08-24T03:00:30.069Z,12.7
2022-08-24T03:05:33.647Z,12.8
2022-08-24T03:10:38.162Z,12.8
2022-08-24T03:15:42.790Z,12.8
2022-08-24T03:20:46.218Z,12.8
2022-08-24T03:25:50.764Z,12.8
2022-08-24T03:30:55.341Z,12.6
2022-08-24T03:35:59.831Z,12.7
2022-08-24T03:41:03.414Z,12.5
2022-08-24T03:46:08.023Z,12.4
2022-08-24T03:51:12.471Z,12.3
2022-08-24T03:56:16.035Z,12.2
2022-08-24T04:01:20.659Z,12.1
2022-08-24T04:06:25.106Z,12
2022-08-24T04:11:28.639Z,12
2022-08-24T04:16:33.225Z,12
2022-08-24T04:21:36.737Z,12
2022-08-24T04:26:44.607Z,11.9
2022-08-24T04:31:45.888Z,12
2022-08-24T04:36:49.344Z,11.9
2022-08-24T04:41:53.873Z,11.8
2022-08-24T04:46:58.405Z,11.7
2022-08-24T04:52:01.928Z,11.8
2022-08-24T04:57:06.481Z,11.7
2022-08-24T05:02:11.091Z,11.6
2022-08-24T05:07:14.589Z,11.7
2022-08-24T05:12:19.129Z,11.7
2022-08-24T05:17:23.670Z,11.6
2022-08-24T05:22:28.192Z,11.7
2022-08-24T05:27:31.716Z,11.8
2022-08-24T05:32:36.259Z,11.7
2022-08-24T05:37:40.766Z,11.9
2022-08-24T05:42:44.379Z,11.9
2022-08-24T05:47:48.882Z,12
2022-08-24T05:52:53.418Z,12.1
2022-08-24T05:57:56.976Z,12.2
2022-08-24T06:03:01.594Z,12.3
2022-08-24T06:08:06.013Z,12.4
2022-08-24T06:13:09.636Z,12.4
2022-08-24T06:18:14.214Z,12.3
2022-08-24T06:23:18.640Z,12.4
2022-08-24T06:28:23.169Z,12.4
2022-08-24T06:33:26.736Z,12.5
2022-08-24T06:38:31.344Z,12.7
2022-08-24T06:43:35.818Z,12.5
2022-08-24T06:48:39.328Z,12.8
2022-08-24T06:53:43.903Z,12.5
2022-08-24T06:58:48.435Z,12.6
2022-08-24T07:03:51.951Z,12.5
2022-08-24T07:08:56.572Z,12.9
2022-08-24T07:14:01.022Z,12.6
2022-08-24T07:19:04.574Z,12.8
2022-08-24T07:24:09.138Z,12.8
2022-08-24T07:29:36.839Z,12.9
2022-08-24T07:34:18.184Z,13.1
2022-08-24T07:39:21.751Z,13.3
2022-08-24T07:44:26.295Z,13.5
2022-08-24T07:49:36.443Z,13.7
2022-08-24T07:54:34.381Z,13.8
2022-08-24T07:59:38.899Z,13.6
2022-08-24T08:04:43.467Z,13.5
2022-08-24T08:09:47.023Z,13.7
2022-08-24T08:14:51.520Z,13.9
2022-08-24T08:19:56.064Z,14.1
2022-08-24T08:24:59.644Z,13.8
2022-08-24T08:30:04.146Z,14.3
2022-08-24T08:35:07.753Z,14.1
2022-08-24T08:40:12.320Z,14.3
2022-08-24T08:45:16.808Z,14.5
2022-08-24T08:50:20.338Z,14.8
2022-08-24T08:55:24.895Z,14.8
2022-08-24T09:00:29.434Z,14.1
2022-08-24T09:05:32.950Z,14.5
2022-08-24T09:10:37.526Z,15.2
2022-08-24T09:15:42.046Z,14.5
2022-08-24T09:20:46.588Z,14.5
2022-08-24T09:25:50.173Z,14.8
2022-08-24T09:30:54.765Z,14.2
2022-08-24T09:35:59.236Z,14.1
2022-08-24T09:41:02.766Z,13.9
2022-08-24T09:46:07.424Z,14.4
2022-08-24T09:51:11.832Z,14.7
2022-08-24T09:56:15.390Z,14
2022-08-24T10:01:19.957Z,14.5
2022-08-24T10:06:24.498Z,15.3
2022-08-24T10:11:28.058Z,15
2022-08-24T10:16:32.644Z,15
2022-08-24T10:21:37.163Z,15.1
2022-08-24T10:26:41.680Z,15
2022-08-24T10:31:45.263Z,15.6
2022-08-24T10:36:49.756Z,15.4
2022-08-24T10:41:54.312Z,15.7
2022-08-24T10:46:58.861Z,16.2
2022-08-24T10:52:02.432Z,16.6
2022-08-24T10:57:11.626Z,16.1
2022-08-24T11:02:12.826Z,15.7
2022-08-24T11:07:15.092Z,16.2
2022-08-24T11:12:19.574Z,15.4
2022-08-24T11:17:23.155Z,14.5
2022-08-24T11:22:27.730Z,14.5
2022-08-24T11:27:32.214Z,14.9
2022-08-24T11:32:36.779Z,14.9
2022-08-24T11:37:40.324Z,14.6
2022-08-24T11:42:44.867Z,14.7
2022-08-24T11:47:49.426Z,15.1
2022-08-24T11:52:52.989Z,14.4
2022-08-24T11:57:57.509Z,14.1
2022-08-24T12:03:02.175Z,14.7
2022-08-24T12:08:05.892Z,15.5
2022-08-24T12:13:10.151Z,14.6
2022-08-24T12:18:14.690Z,13.9
2022-08-24T12:23:18.267Z,14.1
2022-08-24T12:28:22.859Z,13.9
2022-08-24T12:33:27.355Z,14.9
2022-08-24T12:38:31.890Z,13.6
2022-08-24T12:43:35.418Z,14.1
2022-08-24T12:48:38.985Z,13.8
2022-08-24T12:53:43.515Z,14.2
2022-08-24T12:58:54.387Z,14.1
2022-08-24T13:03:51.666Z,14
2022-08-24T13:08:56.183Z,14.4
2022-08-24T13:14:00.735Z,14.4
2022-08-24T13:19:05.257Z,13.8
2022-08-24T13:24:08.807Z,13.9
2022-08-24T13:29:13.350Z,13.7
2022-08-24T13:34:17.896Z,14.3
2022-08-24T13:39:21.491Z,13.9
2022-08-24T13:44:25.992Z,13.8
2022-08-24T13:49:30.592Z,14.6
2022-08-24T13:54:34.096Z,15.2
2022-08-24T13:59:38.635Z,13.9
2022-08-24T14:04:43.214Z,13.7
2022-08-24T14:09:46.760Z,13.3
2022-08-24T14:14:51.269Z,13.4
2022-08-24T14:19:55.824Z,13.6
2022-08-24T14:25:00.332Z,13.7
2022-08-24T14:30:03.920Z,14
2022-08-24T14:35:08.437Z,13.1
2022-08-24T14:40:13.105Z,14.1
2022-08-24T14:45:16.529Z,14.3
2022-08-24T14:50:21.067Z,13.6
2022-08-24T14:55:25.649Z,14
2022-08-24T15:00:29.185Z,14.2
2022-08-24T15:05:33.805Z,14.1
2022-08-24T15:10:38.295Z,14
2022-08-24T15:15:41.875Z,13.9
2022-08-24T15:20:46.378Z,13.4
2022-08-24T15:25:50.875Z,13.9
2022-08-24T15:30:55.505Z,14.2
2022-08-24T15:35:59.012Z,14.5
2022-08-24T15:41:03.532Z,13.9
2022-08-24T15:46:08.125Z,13.5
2022-08-24T15:51:11.635Z,13.7
2022-08-24T15:56:16.178Z,13.8
2022-08-24T16:01:20.751Z,13.8
2022-08-24T16:06:24.233Z,13.6
2022-08-24T16:11:28.762Z,13.5
2022-08-24T16:16:33.399Z,13.8
2022-08-24T16:21:36.881Z,13.8
2022-08-24T16:26:41.433Z,13.6
2022-08-24T16:31:45.958Z,13.6
2022-08-24T16:36:50.502Z,13.6
2022-08-24T16:41:54.047Z,13.6
2022-08-24T16:46:58.547Z,13.6
2022-08-24T16:52:03.128Z,14.1
2022-08-24T16:57:06.696Z,13.7
2022-08-24T17:02:10.318Z,13.6
2022-08-24T17:07:14.751Z,13.7
2022-08-24T17:12:19.327Z,13.5
2022-08-24T17:17:23.843Z,13.5
2022-08-24T17:22:27.393Z,13.5
2022-08-24T17:27:31.915Z,13.5
2022-08-24T17:32:36.514Z,13.6
2022-08-24T17:37:39.999Z,13.2
2022-08-24T17:42:51.231Z,13.4
2022-08-24T17:47:49.055Z,13.2
2022-08-24T17:52:58.952Z,13.4
2022-08-24T17:57:57.136Z,13.5
2022-08-24T18:03:01.751Z,13.3
2022-08-24T18:08:05.268Z,13.2
2022-08-24T18:13:09.819Z,13.2
2022-08-24T18:18:14.325Z,13
2022-08-24T18:23:21.121Z,12.9
2022-08-24T18:28:23.564Z,13.1
2022-08-24T18:33:26.965Z,13
2022-08-24T18:38:31.492Z,12.9
2022-08-24T18:43:35.012Z,12.8
2022-08-24T18:48:39.542Z,12.8
2022-08-24T18:53:44.083Z,12.8
2022-08-24T18:58:47.657Z,12.8
2022-08-24T19:03:53.546Z,12.7
2022-08-24T19:08:56.742Z,12.7
2022-08-24T19:14:00.548Z,12.6
2022-08-24T19:19:04.783Z,12.6
2022-08-24T19:24:09.328Z,12.5
2022-08-24T19:29:13.823Z,12.5
2022-08-24T19:34:17.431Z,12.5
2022-08-24T19:39:28.154Z,12.5
2022-08-24T19:44:27.349Z,12.5
2022-08-24T19:49:29.994Z,12.4
2022-08-24T19:54:34.549Z,12.4
2022-08-24T19:59:39.111Z,12.4
2022-08-24T20:04:42.620Z,12.3
2022-08-24T20:09:47.180Z,12.3
2022-08-24T20:14:51.698Z,12.3
2022-08-24T20:19:55.263Z,12.3
2022-08-24T20:24:59.761Z,12.3
2022-08-24T20:30:04.350Z,12.3
2022-08-24T20:35:08.873Z,12.3
2022-08-24T20:40:12.464Z,12.3
2022-08-24T20:45:16.963Z,12.3
2022-08-24T20:50:21.487Z,12.3
2022-08-24T20:55:25.051Z,12.3
2022-08-24T21:00:29.667Z,12.3
2022-08-24T21:05:34.071Z,12.3
2022-08-24T21:10:37.628Z,12.2
2022-08-24T21:15:42.262Z,12.2
2022-08-24T21:21:03.405Z,12.2
2022-08-24T21:25:50.420Z,12.2
2022-08-24T21:30:54.847Z,12.2
2022-08-24T21:35:58.392Z,12.2
2022-08-24T21:41:02.922Z,12.2
2022-08-24T21:46:07.511Z,12.1
2022-08-24T21:51:10.964Z,12.1
2022-08-24T21:56:15.525Z,12
2022-08-24T22:01:20.125Z,12.1
2022-08-24T22:06:25.916Z,12
2022-08-24T22:11:28.130Z,12.1
2022-08-24T22:16:32.791Z,12.1
2022-08-24T22:21:37.212Z,12.1
2022-08-24T22:26:40.740Z,12.2
2022-08-24T22:31:45.481Z,12.1
2022-08-24T22:36:49.815Z,12.1
2022-08-24T22:41:53.385Z,12.1
2022-08-24T22:46:57.940Z,12
2022-08-24T22:52:02.743Z,12
2022-08-24T22:57:06.033Z,12
2022-08-24T23:02:10.656Z,12
2022-08-24T23:07:15.133Z,12
2022-08-24T23:12:18.668Z,12
2022-08-24T23:17:23.175Z,11.9
2022-08-24T23:22:27.673Z,11.9
2022-08-24T23:27:37.745Z,11.9
2022-08-24T23:32:35.803Z,11.8
2022-08-24T23:37:40.320Z,11.8
2022-08-24T23:42:44.815Z,11.8
2022-08-24T23:47:48.398Z,11.8
2022-08-24T23:52:52.922Z,11.8
2022-08-24T23:57:57.440Z,11.8
